Airfield :
LOGIN :

Register | Disclaimer

   EN    FR    IT 

 










Legend :    VFR   Marginal VFR   IFR   Intensive IFR   Very Intensive IFR
Visi :
Ceiling :
>= 8 km
>= 3000ft
5 to 8 km
1000 to 3000 ft
1500m to 5 km
500 to 1000 ft
800 to 1500m
200 to 500 ft
< 800m
< 200 ft
Symbols :   Thunderstorms  Fog  Heavy snow  Heavy precipitations  Wind > 20 kt
SIGMETs :     Misc.  Thunderstorms  Icing  Turbulence  Mountain Waves  Volcanic Ashes






- Airport Elevation : 11 ft
- IATA code : MJV


LELC - Murcia San Javier

CURRENT METAR :
  • 162230Z AUTO 20007KT 170V240 9000 NSC 26/21 Q1007

EXPIRED METARs :
  • 162200Z AUTO 20006KT 170V230 9000 NSC 25/20 Q1007
  • 162130Z AUTO 23003KT 200V260 9000 NSC 25/20 Q1007
  • 162100Z 23006KT 200V280 CAVOK 26/20 Q1006 NOSIG
  • 162030Z 21007KT 160V250 CAVOK 26/20 Q1006 NOSIG

TAF TAF LELC
Valid from the 16 at 18:00 until the 17 at 18:00 UTC


161700Z 1618/1718 21010KT CAVOK TX34/1715Z TN23/1705Z
BECMG 1621/1624 VRB02KT
BECMG 1703/1706 31010KT
BECMG 1710/1712 14014KT
BECMG 1715/1717 21012KT



MET'MAP, your aeronautical weather chart ! - Copyright ORBIFLY December 2007 - Disclaimer

ORBIFLY MET'MAP TEAM :

Programming & Development : Alexandra Zaïnal
Original concept : Baudouin d'Aumeries
Technical & hardware support : Manuel Goepfert
Assistance : Marc-Olivier Méhu




SOURCES & CREDITS :

   NOAA